X  Cerrar Datos meteorológicos de aviación METAR        LEGR Granada
Temperatura
21°C Temperatura
15°C Punto de rocío
69% Humedad



Viento
11 KM/H
7 MPH
3 M/S
6 NUDO



180°
S
Condiciones actuales

Partly Cloudy Parcialmente nublado
Presión 1015 (hPa) - 29.97 (inHg)
Visibilidad 30 (milla) - 48 (km)
Aeropuerto
Código de aeropuerto LEGR

localidad: Granada
Distancia: 56 (km)

Metar:
METAR LEGR 211430Z 18006KT 9999 FEW050CB SCT060TCU 21/15 Q1017

Hora: 21-09-2021 16:30 CEST